Latest Weather Observations for Warrnambool

IDV60801

Issued at 7:35 pm EST Friday 1 August 2014 (issued every 30 minutes, with the page automatically refreshed every 10 minutes)

About weather observations | Map of weather stations | Latest weather observations for VIC | Other Formats
Station Details ID: 090186 Name: WARRNAMBOOL AIRPORT NDB Lat: -38.29 Lon: 142.45 Height: 70.8 m
Data from the previous 72 hours. | See also: Recent months at Warrnambool
Date/Time
EST
Temp
°C
App
Temp
°C
Dew
Point
Rel
Hum
%
Delta-T
°C
Wind Press
QNH
hPa
Press
MSL
hPa
Rain
since 9 am
mm
Dir
 
Spd
km/h
Gust
km/h
Spd
kts
Gust
kts
01/07:30pm 7.6 0.1 3.5 75 1.7 SSW 32 46 17 25 1019.8 - 5.0
01/07:00pm 6.4 -1.5 4.1 85 1.0 S 35 48 19 26 1019.1 1019.2 4.8
01/06:54pm 6.3 -1.7 3.8 84 1.1 SSW 35 48 19 26 1019.1 - 4.8
01/06:30pm 6.8 2.1 5.0 88 0.8 S 19 28 10 15 1018.3 - 4.6
01/06:00pm 5.9 -0.8 3.7 86 0.9 S 28 39 15 21 1017.8 1017.9 4.6
01/05:49pm 5.9 -1.6 3.4 84 1.0 SSW 32 56 17 30 1018.1 - 4.2
01/05:48pm 7.0 0.1 4.8 86 1.0 SSW 30 46 16 25 1017.9 - 4.0
01/05:30pm 6.0 0.8 3.8 86 0.9 WSW 20 28 11 15 1016.8 - 4.0
01/05:00pm 6.5 2.3 4.0 84 1.1 W 15 26 8 14 1016.0 1016.1 1.4
01/04:30pm 5.4 -1.9 2.6 82 1.1 S 30 39 16 21 1015.8 - 1.4
01/04:10pm 8.3 0.0 2.1 65 2.6 SSW 35 54 19 29 1014.9 - 1.2
01/04:00pm 8.5 -1.3 2.3 65 2.6 SW 43 56 23 30 1014.6 1014.7 1.2
01/03:32pm 8.7 -1.5 3.3 69 2.3 SW 46 65 25 35 1013.9 - 1.2
01/03:30pm 9.2 -0.6 3.2 66 2.6 SW 44 57 24 31 1013.7 - 1.2
01/03:00pm 8.8 -0.8 3.2 68 2.4 SW 43 57 23 31 1012.7 1012.8 1.2
01/02:30pm 9.1 -0.7 3.3 67 2.5 SW 44 59 24 32 1011.8 - 1.2
01/02:19pm 9.0 -0.1 3.8 70 2.3 SW 41 59 22 32 1011.6 - 1.2
01/02:00pm 8.9 -1.9 3.9 71 2.2 SW 50 67 27 36 1011.1 1011.2 1.2
01/01:53pm 8.2 -2.7 3.5 72 2.0 SW 50 67 27 36 1010.9 - 1.2
01/01:30pm 7.2 -3.5 4.5 83 1.2 SSW 50 70 27 38 1010.7 - 1.2
01/01:07pm 8.2 -2.2 4.2 76 1.7 SSW 48 67 26 36 1010.0 - 1.2
01/01:00pm 8.2 -2.6 4.0 75 1.8 SW 50 67 27 36 1010.1 1010.2 1.2
01/12:36pm 9.4 -0.4 3.4 66 2.6 SW 44 63 24 34 1009.2 - 1.2
01/12:30pm 9.2 -1.3 3.8 69 2.4 SW 48 61 26 33 1009.2 - 1.2
01/12:02pm 8.9 -1.2 3.5 69 2.3 SW 46 67 25 36 1008.5 - 1.2
01/12:00pm 8.9 -1.2 3.5 69 2.3 SW 46 61 25 33 1008.5 1008.6 1.2
01/11:32am 8.2 -2.9 4.4 77 1.7 SSW 52 70 28 38 1007.6 - 1.2
01/11:30am 8.0 -3.2 4.2 77 1.7 SW 52 69 28 37 1007.5 - 1.2
01/11:18am 7.8 1.3 4.7 81 1.4 SSW 28 57 15 31 1007.2 - 1.0
01/11:00am 6.9 -0.6 3.3 78 1.5 SW 32 43 17 23 1006.6 1006.7 1.0
01/10:43am 5.8 -1.8 2.8 81 1.2 S 32 39 17 21 1006.5 - 1.0
01/10:36am 6.6 -5.5 3.2 79 1.4 SSW 56 74 30 40 1006.6 - 0.8
01/10:35am 6.7 -6.4 3.0 77 1.6 SSW 61 74 33 40 1006.5 - 0.8
01/10:34am 7.3 -0.8 3.0 74 1.8 SW 35 70 19 38 1006.4 - 0.8
01/10:30am 7.9 0.8 3.4 73 1.9 SW 30 41 16 22 1005.9 - 0.8
01/10:00am 5.5 -5.5 2.8 83 1.1 S 50 69 27 37 1005.2 1005.3 0.8
01/09:53am 5.5 -7.0 2.3 80 1.3 S 57 67 31 36 1005.4 - 0.4
01/09:51am 7.6 -0.3 4.2 79 1.5 SSW 35 76 19 41 1005.2 - 0.4
01/09:30am 6.9 0.4 4.6 85 1.0 SSW 28 39 15 21 1004.3 - 0.4
01/09:06am 6.8 -0.4 4.8 87 0.9 WSW 32 59 17 32 1003.6 - 0.2
01/09:00am 6.2 0.1 4.8 91 0.6 WSW 26 39 14 21 1002.9 1003.0 18.2
01/08:54am 5.7 -0.8 4.8 94 0.4 WSW 28 46 15 25 1002.9 - 18.2
01/08:49am 5.4 -2.1 4.5 94 0.4 WSW 33 46 18 25 1002.8 - 18.2
01/08:45am 5.2 -3.5 4.3 94 0.4 W 39 57 21 31 1002.8 - 18.2
01/08:44am 5.1 -1.9 4.2 94 0.4 NW 30 57 16 31 1002.8 - 18.2
01/08:30am 4.8 -2.3 3.8 93 0.4 NW 30 37 16 20 1002.2 - 18.0
01/08:00am 5.1 -2.4 3.4 89 0.7 NW 32 46 17 25 1002.1 1002.2 16.0
01/07:30am 5.0 -3.1 3.5 90 0.6 NW 35 50 19 27 1001.0 - 16.0
01/07:13am 5.1 -2.0 3.8 91 0.5 NW 30 48 16 26 1001.0 - 15.6
01/07:00am 4.8 -4.0 3.5 91 0.5 NNW 39 56 21 30 1000.7 1000.8 15.2
01/06:30am 4.6 -3.1 3.4 92 0.5 NNW 33 44 18 24 1000.3 - 15.2
01/06:00am 4.6 -2.5 3.4 92 0.5 NNW 30 39 16 21 1000.2 1000.2 15.2
01/05:30am 4.8 -2.9 3.5 91 0.5 NW 33 56 18 30 1000.8 - 14.8
01/05:26am 4.7 -2.4 3.4 91 0.5 NW 30 52 16 28 1000.8 - 14.8
01/05:00am 4.9 -3.3 2.8 86 0.9 NNW 35 46 19 25 999.7 999.7 13.4
01/04:34am 4.7 -3.9 2.4 85 0.9 NNW 37 56 20 30 999.2 - 13.4
01/04:30am 4.8 -5.0 2.3 84 1.0 NNW 43 56 23 30 999.1 - 13.4
01/04:23am 5.0 -4.8 2.4 83 1.1 NNW 43 61 23 33 999.0 - 13.4
01/04:00am 5.2 -4.1 3.2 87 0.8 NNW 41 54 22 29 999.4 999.4 13.4
01/03:37am 4.9 -4.0 3.1 88 0.7 NNW 39 59 21 32 999.7 - 13.4
01/03:30am 5.0 -3.9 3.3 89 0.7 NNW 39 52 21 28 999.6 - 13.4
01/03:00am 4.4 -3.8 2.9 90 0.6 NNW 35 44 19 24 1000.2 1000.2 13.4
01/02:30am 4.0 -3.6 2.7 91 0.5 N 32 44 17 24 1000.4 - 13.4
01/02:00am 4.4 -5.3 2.6 88 0.7 NNW 43 57 23 31 1000.6 1000.7 13.2
01/01:30am 5.8 -3.8 3.3 84 1.0 NW 43 63 23 34 1000.9 - 13.2
01/01:25am 5.8 -3.4 3.3 84 1.0 NNW 41 59 22 32 1000.9 - 13.2
01/01:00am 5.6 -3.2 3.6 87 0.8 NNW 39 52 21 28 1000.8 1000.9 13.2
01/12:30am 5.1 -3.0 3.1 87 0.8 NNW 35 48 19 26 1000.9 - 12.8
01/12:07am 5.4 -1.3 3.6 88 0.8 NNW 28 50 15 27 1001.2 - 12.8
01/12:00am 5.4 0.2 3.4 87 0.8 NNW 20 30 11 16 1001.2 1001.3 12.8
 
Date/Time
EST
Temp
°C
App
Temp
°C
Dew
Point
Rel
Hum
%
Delta-T
°C
Wind Press
QNH
hPa
Press
MSL
hPa
Rain
since 9 am
mm
Dir
 
Spd
km/h
Gust
km/h
Spd
kts
Gust
kts
31/11:30pm 5.2 -1.2 3.1 86 0.9 NW 26 35 14 19 1001.2 - 12.8
31/11:13pm 5.5 -2.9 3.7 88 0.8 NW 37 56 20 30 1001.6 - 12.6
31/11:00pm 5.0 -1.8 3.3 89 0.7 NW 28 37 15 20 1001.3 1001.4 12.6
31/10:30pm 5.3 -2.2 3.2 86 0.9 NW 32 41 17 22 1001.0 - 12.6
31/10:00pm 5.8 -1.9 3.5 85 1.0 NW 33 46 18 25 1000.7 1000.8 12.6
31/09:30pm 5.6 -0.7 3.8 88 0.8 NW 26 33 14 18 1000.7 - 12.6
31/09:00pm 6.0 -1.6 3.7 85 1.0 WNW 33 61 18 33 1001.2 1001.3 12.6
31/08:51pm 6.5 -0.6 3.8 83 1.2 WNW 30 61 16 33 1001.0 - 11.6
31/08:30pm 6.6 0.7 4.1 84 1.1 NW 24 35 13 19 1000.0 - 11.4
31/08:00pm 6.9 1.0 4.0 82 1.3 W 24 30 13 16 1000.0 1000.0 11.0
31/07:30pm 6.8 0.6 4.5 85 1.0 NW 26 32 14 17 999.2 - 11.0
31/07:00pm 6.6 1.8 4.9 89 0.8 WNW 19 28 10 15 999.3 999.3 11.0
31/06:32pm 6.1 -1.0 3.6 84 1.1 W 30 54 16 29 999.6 - 10.8
31/06:30pm 7.0 0.8 4.5 84 1.1 WNW 26 37 14 20 999.5 - 10.6
31/06:00pm 7.5 0.1 3.9 78 1.6 WNW 32 52 17 28 998.4 998.4 10.4
31/05:57pm 7.6 1.0 4.0 78 1.6 WNW 28 52 15 28 998.3 - 10.4
31/05:30pm 7.5 -0.5 3.9 78 1.6 WNW 35 52 19 28 997.6 - 10.4
31/05:27pm 7.4 -0.6 4.0 79 1.5 WNW 35 52 19 28 997.6 - 10.4
31/05:00pm 7.7 -1.4 4.1 78 1.6 NW 41 67 22 36 997.0 997.1 10.2
31/04:52pm 7.8 -0.5 4.2 78 1.6 NW 37 61 20 33 996.6 - 10.2
31/04:30pm 7.7 -0.9 4.7 81 1.3 NW 39 50 21 27 996.7 - 10.2
31/04:00pm 6.9 -1.7 4.6 85 1.0 NW 39 48 21 26 997.0 997.1 10.2
31/03:39pm 7.6 -0.2 4.7 82 1.3 WNW 35 59 19 32 997.4 - 9.6
31/03:30pm 7.7 0.5 4.8 82 1.3 WNW 32 46 17 25 997.3 - 9.6
31/03:05pm 7.4 -0.3 5.4 87 0.9 WNW 35 57 19 31 997.3 - 9.6
31/03:00pm 7.5 -0.9 5.5 87 0.9 NW 39 50 21 27 997.1 997.2 9.4
31/02:30pm 7.9 -1.4 5.7 86 1.0 NW 44 57 24 31 996.0 - 9.4
31/02:16pm 7.6 -1.2 5.7 88 0.9 NW 41 50 22 27 995.9 - 9.2
31/02:00pm 7.3 -1.4 5.9 91 0.6 W 41 59 22 32 996.4 996.5 9.2
31/01:32pm 7.6 -2.8 6.1 90 0.7 W 50 69 27 37 996.4 - 7.6
31/01:30pm 7.7 -3.1 6.2 90 0.7 W 52 69 28 37 996.4 - 7.6
31/01:01pm 7.9 -1.9 7.0 94 0.4 W 48 67 26 36 996.0 - 6.6
31/01:00pm 8.0 -1.8 7.2 95 0.4 W 48 65 26 35 996.0 996.1 6.6
31/12:35pm 8.7 1.7 8.3 97 0.2 W 35 54 19 29 995.6 - 6.0
31/12:30pm 8.9 1.5 8.5 97 0.2 W 37 52 20 28 995.3 - 5.8
31/12:02pm 9.1 -0.4 8.3 95 0.4 W 48 74 26 40 995.8 - 5.2
31/12:00pm 9.6 0.6 8.8 95 0.4 W 46 61 25 33 995.8 995.9 5.2
31/11:38am 9.9 2.7 9.0 94 0.4 W 37 63 20 34 995.2 - 3.8
31/11:30am 9.9 3.5 8.7 92 0.6 W 32 43 17 23 994.9 - 3.0
31/11:12am 11.7 0.8 7.2 74 2.2 W 54 74 29 40 994.9 - 0.0
31/11:00am 13.9 2.8 8.9 72 2.6 NNW 57 80 31 43 992.7 992.8 0.0
31/10:30am 14.3 3.3 9.1 71 2.7 NNW 57 83 31 45 993.0 - 0.0
31/10:00am 13.0 2.7 8.3 73 2.4 NNW 52 76 28 41 993.3 993.4 0.0
31/09:30am 12.8 2.6 8.5 75 2.1 NNW 52 74 28 40 994.0 - 0.0
31/09:00am 12.7 3.9 8.2 74 2.3 NNW 44 63 24 34 994.7 994.8 0.8
31/08:30am 12.2 3.6 8.1 76 2.0 NNW 43 63 23 34 995.5 - 0.8
31/08:00am 12.0 2.9 8.3 78 1.8 N 46 67 25 36 996.0 996.1 0.8
31/07:30am 12.3 3.5 8.0 75 2.1 NNW 44 63 24 34 996.4 - 0.8
31/07:08am 12.3 3.7 8.2 76 2.0 NNW 43 61 23 33 996.6 - 0.8
31/07:00am 12.3 3.5 8.2 76 2.0 NNW 44 61 24 33 996.8 996.9 0.8
31/06:30am 12.4 3.9 8.7 78 1.9 NNW 43 69 23 37 997.5 - 0.8
31/06:10am 12.8 5.1 8.5 75 2.1 NNW 39 57 21 31 997.5 - 0.8
31/06:00am 12.8 4.2 8.3 74 2.3 NNW 43 56 23 30 997.3 997.4 0.8
31/05:37am 12.9 4.4 8.4 74 2.2 NNW 43 61 23 33 997.8 - 0.8
31/05:30am 13.0 4.3 8.5 74 2.3 NNW 44 61 24 33 997.8 - 0.8
31/05:29am 12.9 4.4 8.4 74 2.2 NNW 43 61 23 33 997.8 - 0.8
31/05:00am 13.2 4.2 8.7 74 2.3 NNW 46 61 25 33 998.3 998.3 0.8
31/04:30am 12.6 5.8 9.1 79 1.8 NNW 35 54 19 29 999.5 - 0.8
31/04:28am 12.7 5.9 9.2 79 1.8 NNW 35 54 19 29 999.6 - 0.8
31/04:00am 13.3 4.9 9.0 75 2.2 NNW 43 57 23 31 1000.0 1000.0 0.8
31/03:49am 13.3 5.7 9.2 76 2.1 NNW 39 57 21 31 1000.0 - 0.8
31/03:30am 13.2 5.7 9.3 77 2.0 NNW 39 48 21 26 1000.5 - 0.8
31/03:00am 13.0 5.1 9.3 78 1.9 NNW 41 56 22 30 1001.1 1001.2 0.8
31/02:30am 13.1 5.2 9.2 77 2.0 NNW 41 52 22 28 1001.4 - 0.8
31/02:00am 13.3 5.4 9.4 77 2.0 NNW 41 61 22 33 1001.9 1002.0 0.8
31/01:58am 13.3 5.4 9.4 77 2.0 NNW 41 61 22 33 1001.9 - 0.8
31/01:30am 13.0 5.5 9.4 79 1.8 NNW 39 52 21 28 1002.4 - 0.8
31/01:00am 13.2 5.4 9.8 80 1.8 NNW 41 57 22 31 1003.3 1003.4 0.8
31/12:30am 12.9 5.5 9.9 82 1.5 NNW 39 52 21 28 1003.9 - 0.8
31/12:00am 12.5 5.7 10.6 88 1.0 NNW 37 54 20 29 1004.6 1004.7 0.8
 
Date/Time
EST
Temp
°C
App
Temp
°C
Dew
Point
Rel
Hum
%
Delta-T
°C
Wind Press
QNH
hPa
Press
MSL
hPa
Rain
since 9 am
mm
Dir
 
Spd
km/h
Gust
km/h
Spd
kts
Gust
kts
30/11:30pm 12.3 4.1 9.7 84 1.3 NW 43 56 23 30 1005.0 - 0.8
30/11:00pm 13.4 4.7 10.0 80 1.8 NNW 46 67 25 36 1005.3 1005.4 0.8
30/10:55pm 13.4 4.7 9.8 79 1.9 NNW 46 67 25 36 1005.3 - 0.8
30/10:30pm 13.2 5.4 9.6 79 1.8 NNW 41 56 22 30 1005.8 - 0.8
30/10:00pm 13.5 5.8 10.1 80 1.8 NNW 41 56 22 30 1006.3 1006.4 0.8
30/09:30pm 13.0 6.2 10.5 85 1.3 NW 37 50 20 27 1006.6 - 0.8
30/09:00pm 12.7 5.5 10.4 86 1.2 NW 39 59 21 32 1006.9 1007.0 0.8
30/08:30pm 12.8 4.1 10.0 83 1.4 NNW 46 65 25 35 1006.9 - 0.8
30/08:23pm 13.0 5.3 10.0 82 1.5 NNW 41 63 22 34 1007.0 - 0.8
30/08:00pm 12.5 6.3 9.9 84 1.3 NW 33 43 18 23 1007.1 1007.2 0.8
30/07:38pm 13.3 5.8 9.4 77 2.0 NW 39 59 21 32 1007.3 - 0.8
30/07:30pm 13.5 6.4 9.7 78 2.0 NW 37 48 20 26 1007.3 - 0.8
30/07:00pm 13.1 6.4 9.5 79 1.8 NNW 35 56 19 30 1007.2 1007.3 0.8
30/06:56pm 13.2 6.9 9.6 79 1.8 NNW 33 56 18 30 1007.2 - 0.8
30/06:30pm 13.5 6.9 9.9 79 1.9 NW 35 52 19 28 1007.4 - 0.8
30/06:15pm 13.5 7.6 10.3 81 1.7 NNW 32 50 17 27 1007.3 - 0.8
30/06:00pm 13.5 7.4 10.3 81 1.7 NW 33 43 18 23 1007.4 1007.5 0.8
30/05:31pm 13.7 6.8 10.3 80 1.8 NW 37 56 20 30 1007.3 - 0.8
30/05:30pm 13.8 6.6 10.4 80 1.8 NW 39 56 21 30 1007.3 - 0.8
30/05:00pm 14.3 7.8 10.5 78 2.0 NW 35 50 19 27 1007.3 1007.4 0.8
30/04:30pm 14.3 8.5 10.9 80 1.8 NW 32 48 17 26 1007.4 - 0.8
30/04:00pm 14.5 8.5 10.9 79 1.9 NW 33 46 18 25 1007.4 1007.5 0.8
30/03:30pm 14.8 6.9 10.8 77 2.1 NW 43 54 23 29 1007.6 - 0.8
30/03:00pm 14.7 8.1 11.5 81 1.7 NW 37 56 20 30 1007.8 1007.9 0.8
30/02:36pm 14.9 8.5 13.1 89 1.0 NW 39 59 21 32 1007.8 - 0.8
30/02:30pm 14.6 8.6 13.3 92 0.7 NW 37 50 20 27 1007.8 - 0.8
30/02:00pm 13.7 8.2 12.6 93 0.6 WNW 33 54 18 29 1008.1 1008.2 0.8
30/01:43pm 14.1 9.9 13.5 96 0.3 WNW 28 46 15 25 1008.2 - 0.8
30/01:30pm 13.6 9.2 12.8 95 0.4 WNW 28 37 15 20 1008.5 - 0.8
30/01:00pm 15.1 9.4 11.3 78 2.0 WNW 32 50 17 27 1008.7 1008.8 0.2
30/12:57pm 15.3 9.1 11.3 77 2.1 WNW 35 54 19 29 1008.7 - 0.2
30/12:30pm 15.5 7.4 11.9 79 2.0 NW 46 63 25 34 1008.9 - 0.2
30/12:00pm 15.4 8.6 12.0 80 1.9 NW 39 52 21 28 1009.5 1009.6 0.2
30/11:30am 15.0 8.2 12.0 82 1.6 NW 39 57 21 31 1009.9 - 0.2
30/11:00am 14.4 8.0 13.1 92 0.7 NW 39 57 21 31 1010.3 1010.4 0.2
30/10:59am 14.6 8.7 13.5 93 0.6 NW 37 56 20 30 1010.4 - 0.2
30/10:30am 13.6 7.6 12.0 90 0.9 NNW 35 48 19 26 1010.5 - 0.0
30/10:00am 13.3 8.4 12.4 94 0.5 NNW 30 39 16 21 1010.6 1010.7 0.0
30/09:33am 12.9 7.4 11.8 93 0.6 NW 32 50 17 27 1010.6 - 0.0
30/09:30am 13.0 8.0 12.1 94 0.5 NW 30 43 16 23 1010.7 - 0.0
30/09:00am 12.4 7.6 11.8 96 0.3 NW 28 37 15 20 1010.8 1010.9 5.8
30/08:30am 12.3 7.8 11.5 95 0.4 NNW 26 33 14 18 1010.6 - 5.8
30/08:00am 11.8 6.4 11.0 95 0.4 NW 30 44 16 24 1010.4 1010.5 5.8
30/07:30am 11.5 6.9 10.9 96 0.3 NNW 26 33 14 18 1010.0 - 5.8
30/07:00am 11.4 6.4 10.9 97 0.3 NNW 28 35 15 19 1009.7 1009.8 5.8
30/06:30am 11.3 6.6 10.8 97 0.3 NNW 26 35 14 19 1009.7 - 5.8
30/06:00am 11.1 6.4 10.8 98 0.2 NNW 26 37 14 20 1009.6 1009.7 5.8
30/05:30am 11.1 6.5 10.9 99 0.1 NW 26 33 14 18 1009.9 - 5.8
30/05:00am 10.9 6.6 10.7 99 0.1 NW 24 35 13 19 1010.0 1010.1 5.8
30/04:30am 10.9 6.6 10.7 99 0.1 NW 24 32 13 17 1010.0 - 5.8
30/04:00am 11.4 6.5 11.2 99 0.1 NW 28 39 15 21 1010.0 1010.1 5.8
30/03:30am 10.9 7.0 10.7 99 0.1 NW 22 30 12 16 1010.3 - 5.8
30/03:00am 10.8 6.1 10.5 98 0.2 NW 26 32 14 17 1010.5 1010.6 5.8
30/02:30am 11.2 7.4 11.0 99 0.1 NW 22 30 12 16 1010.5 - 5.8
30/02:00am 11.6 7.5 11.4 99 0.1 NW 24 30 13 16 1010.6 1010.7 5.8
30/01:30am 12.0 8.8 11.8 99 0.1 WNW 20 32 11 17 1010.6 - 5.8
30/01:03am 12.1 7.4 11.9 99 0.1 WNW 28 46 15 25 1010.4 - 5.8
30/01:00am 12.1 7.0 11.9 99 0.1 WNW 30 46 16 25 1010.4 1010.5 5.8
30/12:30am 12.4 7.8 12.2 99 0.1 WNW 28 41 15 22 1010.2 - 5.8
30/12:00am 12.4 9.5 12.2 99 0.1 WNW 19 30 10 16 1010.2 1010.3 5.8
 
Date/Time
EST
Temp
°C
App
Temp
°C
Dew
Point
Rel
Hum
%
Delta-T
°C
Wind Press
QNH
hPa
Press
MSL
hPa
Rain
since 9 am
mm
Dir
 
Spd
km/h
Gust
km/h
Spd
kts
Gust
kts
29/11:30pm 12.4 8.9 12.2 99 0.1 WNW 22 32 12 17 1010.1 - 5.4
29/11:00pm 12.7 9.5 11.8 94 0.5 WNW 20 32 11 17 1009.9 1010.0 3.0
29/10:30pm 12.7 7.3 12.1 96 0.3 WNW 32 43 17 23 1009.7 - 3.0
29/10:00pm 12.5 7.5 12.3 99 0.1 NW 30 43 16 23 1009.4 1009.5 3.0
29/09:30pm 12.7 7.6 11.9 95 0.4 NW 30 39 16 21 1009.1 - 2.8
29/09:00pm 13.4 9.0 11.8 90 0.9 WNW 26 43 14 23 1008.9 1009.0 2.8
29/08:30pm 13.1 8.4 12.0 93 0.6 WNW 28 44 15 24 1008.7 - 2.8
29/08:00pm 13.0 8.5 12.5 97 0.3 NW 28 37 15 20 1008.4 1008.5 2.8

Other Formats:

Comma delimited format used in spreadsheet applications
http://www.bom.gov.au/fwo/IDV60801/IDV60801.94837.axf

JavaScript Object Notation format (JSON) in row-major order
http://www.bom.gov.au/fwo/IDV60801/IDV60801.94837.json